Clintonville, NY (12924)

2:28 PM EST on January 27, 2015 (GMT -0500)
RAWS SCHUYLER FALLS NY US | Change Station
CLOSE
Current Station
Personal Weather Station
Location: Peru, NY
Elevation: 649 ft
Nearby Weather Stations

Elev 649 ft 44.60 °N, 73.60 °W | Updated 27 minutes ago

Overcast
Overcast
9 °F
Feels Like -1 °F
N
6
Wind Variable Wind from North
Gusts 15.0 mph

Today
High -- | Low -- °F
--% Chance of Precip.
Yesterday
High -- | Low -- °F
Precip. -- in
7:18 AM 4:56 PM
First Quarter, 57% visible
Pressure 29.98 in
Visibility 10.0 miles
Clouds Scattered Clouds 4800 ft
Scattered Clouds 5500 ft
Mostly Cloudy 10000 ft
Windchill -1 °F
Dew Point -7 °F
Humidity 47%
Rainfall 0.00 in
Snow Depth Not available.
UV 1 out of 12
Pollen .10 out of 12
Air Quality Not available.
Flu Activity Not available.
METAR KPBG 271853Z AUTO 35022G30KT 10SM SCT048 SCT055 BKN100 M12/M19 A2996 RMK AO2 PK WND 36033/1838 SLP152 T11221194

More Conditions Fewer Conditions

Pressure 29.98 in
Visibility 10.0 miles
Clouds Scattered Clouds 4800 ft
Scattered Clouds 5500 ft
Mostly Cloudy 10000 ft
Windchill -1 °F
Dew Point -7 °F
Humidity 47%
Rainfall 0.00 in
Snow Depth Not available.
UV 1 out of 12
Pollen .10 out of 12
Air Quality Not available.
Flu Activity Not available.
METAR KPBG 271853Z AUTO 35022G30KT 10SM SCT048 SCT055 BKN100 M12/M19 A2996 RMK AO2 PK WND 36033/1838 SLP152 T11221194

More Conditions Fewer Conditions

10-Day Weather Forecast

Almanac

Astronomy

Jan. 27, 2015 Rise Set
Actual Time
Civil Twilight
Nautical Twilight
Astronomical Twilight
Moon
Length of Visible Light
Length of Day
Tomorrow will be .
, % of the Moon is Illuminated

Today's Extremes

State Highs State Lows

Community

WunderPhotos

Upload Photos

1,790,785 photos uploaded!

WunderBlogs® & News

Nearby

Air Quality

  Air Quality AQ Index Pollutant
Not available.

Snow Depth

Station Depth Elevation

Earthquake Activity

City Distance Mag. Time & Date
Minimum magnitude displayed is 2.5.

Coastal Water Temperatures

Place Temperature

Nearby Weather Stations